createdAt,value
2018-11-21T00:00:19.237Z,20.22
2018-11-21T00:01:19.203Z,20.19
2018-11-21T00:02:19.192Z,20.20
2018-11-21T00:03:19.180Z,20.22
2018-11-21T00:04:19.185Z,20.17
2018-11-21T00:05:19.175Z,20.25
2018-11-21T00:06:19.147Z,20.25
2018-11-21T00:07:19.182Z,20.17
2018-11-21T00:08:19.131Z,20.17
2018-11-21T00:09:19.113Z,20.25
2018-11-21T00:10:19.141Z,20.22
2018-11-21T00:11:19.094Z,20.20
2018-11-21T00:12:19.080Z,20.23
2018-11-21T00:13:19.069Z,20.20
2018-11-21T00:14:19.065Z,20.34
2018-11-21T00:15:19.062Z,20.19
2018-11-21T00:16:19.048Z,20.35
2018-11-21T00:17:19.032Z,20.17
2018-11-21T00:18:19.029Z,20.19
2018-11-21T00:19:19.003Z,20.15
2018-11-21T00:20:19.012Z,20.17
2018-11-21T00:21:18.987Z,20.23
2018-11-21T00:22:18.980Z,20.22
2018-11-21T00:23:18.966Z,20.22
2018-11-21T00:24:18.949Z,20.25
2018-11-21T00:25:18.972Z,20.25
2018-11-21T00:26:18.934Z,20.22
2018-11-21T00:27:18.921Z,20.20
2018-11-21T00:28:18.947Z,20.30
2018-11-21T00:29:18.892Z,20.25
2018-11-21T00:30:18.883Z,20.10
2018-11-21T00:31:18.892Z,20.23
2018-11-21T00:32:18.860Z,20.33
2018-11-21T00:33:18.855Z,20.22
2018-11-21T00:34:18.851Z,20.22
2018-11-21T00:35:18.855Z,20.19
2018-11-21T00:36:18.840Z,20.13
2018-11-21T00:37:18.805Z,20.17
2018-11-21T00:38:18.794Z,20.20
2018-11-21T00:39:18.783Z,20.26
2018-11-21T00:40:18.773Z,20.25
2018-11-21T00:41:18.818Z,20.13
2018-11-21T00:42:18.768Z,20.22
2018-11-21T00:43:18.745Z,20.25
2018-11-21T00:44:18.728Z,20.23
2018-11-21T00:45:18.716Z,20.23
2018-11-21T00:46:18.725Z,20.19
2018-11-21T00:47:18.734Z,20.27
2018-11-21T00:48:18.685Z,20.20
2018-11-21T00:49:18.683Z,20.23
2018-11-21T00:50:18.667Z,20.27
2018-11-21T00:51:18.670Z,20.26
2018-11-21T00:52:18.646Z,20.30
2018-11-21T00:53:18.670Z,20.27
2018-11-21T00:54:18.619Z,20.27
2018-11-21T00:55:18.613Z,20.26
2018-11-21T00:56:18.613Z,20.20
2018-11-21T00:57:18.587Z,20.23
2018-11-21T00:58:18.577Z,20.22
2018-11-21T00:59:18.609Z,20.31
2018-11-21T01:00:18.552Z,20.23
2018-11-21T01:01:18.564Z,20.25
2018-11-21T01:02:18.531Z,20.22
2018-11-21T01:03:18.522Z,20.22
2018-11-21T01:04:18.509Z,20.33
2018-11-21T01:05:18.519Z,20.27
2018-11-21T01:06:18.509Z,20.25
2018-11-21T01:07:18.481Z,20.23
2018-11-21T01:08:18.542Z,20.26
2018-11-21T01:09:18.454Z,20.27
2018-11-21T01:10:18.442Z,20.23
2018-11-21T01:11:18.447Z,20.25
2018-11-21T01:12:18.449Z,20.27
2018-11-21T01:13:18.408Z,20.26
2018-11-21T01:14:18.399Z,20.25
2018-11-21T01:15:18.397Z,20.25
2018-11-21T01:16:18.400Z,20.27
2018-11-21T01:17:18.374Z,20.30
2018-11-21T01:18:18.371Z,20.20
2018-11-21T01:19:18.345Z,20.25
2018-11-21T01:20:18.364Z,20.27
2018-11-21T01:21:18.337Z,20.25
2018-11-21T01:22:18.311Z,20.23
2018-11-21T01:23:18.300Z,20.23
2018-11-21T01:24:18.308Z,20.30
2018-11-21T01:25:18.280Z,20.33
2018-11-21T01:26:18.288Z,20.30
2018-11-21T01:27:18.256Z,20.27
2018-11-21T01:28:18.243Z,20.13
2018-11-21T01:29:18.232Z,20.27
2018-11-21T01:30:18.252Z,20.17
2018-11-21T01:31:18.212Z,20.23
2018-11-21T01:32:18.217Z,20.30
2018-11-21T01:33:18.198Z,20.23
2018-11-21T01:34:18.178Z,20.35
2018-11-21T01:35:18.174Z,20.15
2018-11-21T01:36:18.174Z,20.20
2018-11-21T01:37:18.160Z,20.22
2018-11-21T01:38:18.136Z,20.17
2018-11-21T01:39:18.129Z,20.31
2018-11-21T01:40:18.112Z,20.25
2018-11-21T01:41:18.101Z,20.25
2018-11-21T01:42:18.118Z,20.23
2018-11-21T01:43:18.085Z,20.27
2018-11-21T01:44:18.070Z,20.30
2018-11-21T01:45:18.056Z,20.19
2018-11-21T01:46:18.053Z,20.25
2018-11-21T01:47:18.069Z,20.25
2018-11-21T01:48:18.040Z,20.25
2018-11-21T01:49:18.024Z,20.27
2018-11-21T01:50:18.005Z,20.27
2018-11-21T01:51:17.997Z,20.27
2018-11-21T01:52:17.980Z,20.23
2018-11-21T01:53:17.983Z,20.27
2018-11-21T01:54:17.988Z,20.31
2018-11-21T01:55:17.950Z,20.31
2018-11-21T01:56:17.938Z,20.26
2018-11-21T01:57:17.925Z,20.30
2018-11-21T01:58:17.929Z,20.23
2018-11-21T01:59:17.904Z,20.26
2018-11-21T02:00:18.008Z,20.31
2018-11-21T02:01:17.892Z,20.26
2018-11-21T02:02:17.870Z,20.25
2018-11-21T02:03:17.876Z,20.26
2018-11-21T02:04:17.849Z,20.27
2018-11-21T02:05:17.837Z,20.27
2018-11-21T02:06:17.852Z,20.31
2018-11-21T02:07:17.814Z,20.25
2018-11-21T02:08:17.824Z,20.31
2018-11-21T02:09:17.796Z,20.27
2018-11-21T02:10:17.784Z,20.33
2018-11-21T02:11:17.778Z,20.26
2018-11-21T02:12:17.788Z,20.30
2018-11-21T02:13:17.774Z,20.27
2018-11-21T02:14:17.738Z,20.31
2018-11-21T02:15:17.733Z,20.26
2018-11-21T02:16:17.716Z,20.34
2018-11-21T02:17:17.705Z,20.26
2018-11-21T02:18:17.762Z,20.30
2018-11-21T02:19:17.684Z,20.31
2018-11-21T02:20:17.674Z,20.31
2018-11-21T02:21:17.661Z,20.26
2018-11-21T02:22:17.654Z,20.26
2018-11-21T02:23:17.665Z,20.31
2018-11-21T02:24:17.650Z,20.22
2018-11-21T02:25:17.625Z,20.31
2018-11-21T02:26:17.608Z,20.27
2018-11-21T02:27:17.594Z,20.33
2018-11-21T02:28:17.612Z,20.30
2018-11-21T02:29:17.573Z,20.31
2018-11-21T02:30:17.596Z,20.27
2018-11-21T02:31:17.554Z,20.31
2018-11-21T02:32:17.546Z,20.25
2018-11-21T02:33:17.529Z,20.30
2018-11-21T02:34:17.539Z,20.26
2018-11-21T02:35:17.506Z,20.26
2018-11-21T02:36:17.514Z,20.25
2018-11-21T02:37:17.483Z,20.31
2018-11-21T02:38:17.474Z,20.30
2018-11-21T02:39:17.483Z,20.26
2018-11-21T02:40:17.453Z,20.30
2018-11-21T02:41:17.440Z,20.30
2018-11-21T02:42:17.459Z,20.26
2018-11-21T02:43:17.419Z,20.30
2018-11-21T02:44:17.424Z,20.34
2018-11-21T02:45:17.399Z,20.33
2018-11-21T02:46:17.385Z,20.31
2018-11-21T02:47:17.378Z,20.30
2018-11-21T02:48:17.390Z,20.27
2018-11-21T02:49:17.372Z,20.26
2018-11-21T02:50:17.341Z,20.33
2018-11-21T02:51:17.338Z,20.31
2018-11-21T02:52:17.321Z,20.26
2018-11-21T02:53:17.312Z,20.30
2018-11-21T02:54:17.335Z,20.25
2018-11-21T02:55:17.288Z,20.25
2018-11-21T02:56:17.276Z,20.27
2018-11-21T02:57:17.265Z,20.26
2018-11-21T02:58:17.256Z,20.31
2018-11-21T02:59:17.279Z,20.26
2018-11-21T03:00:17.262Z,20.31
2018-11-21T03:01:17.220Z,20.31
2018-11-21T03:02:17.216Z,20.40
2018-11-21T03:03:17.199Z,20.26
2018-11-21T03:04:17.188Z,20.30
2018-11-21T03:05:17.200Z,20.31
2018-11-21T03:06:17.197Z,20.26
2018-11-21T03:07:17.154Z,20.26
2018-11-21T03:08:17.144Z,20.23
2018-11-21T03:09:17.139Z,20.26
2018-11-21T03:10:17.137Z,20.30
2018-11-21T03:11:17.130Z,20.27
2018-11-21T03:12:17.111Z,20.26
2018-11-21T03:13:17.089Z,20.30
2018-11-21T03:14:17.082Z,20.27
2018-11-21T03:15:17.088Z,20.30
2018-11-21T03:16:17.058Z,20.33
2018-11-21T03:17:17.046Z,20.26
2018-11-21T03:18:17.045Z,20.27
2018-11-21T03:19:17.041Z,20.27
2018-11-21T03:20:17.027Z,20.31
2018-11-21T03:21:17.008Z,20.31
2018-11-21T03:22:16.992Z,20.34
2018-11-21T03:23:16.978Z,20.33
2018-11-21T03:24:16.968Z,20.30
2018-11-21T03:25:16.990Z,20.33
2018-11-21T03:26:16.948Z,20.33
2018-11-21T03:27:16.935Z,20.31
2018-11-21T03:28:16.924Z,20.30
2018-11-21T03:29:16.914Z,20.30
2018-11-21T03:30:16.923Z,20.37
2018-11-21T03:31:16.937Z,20.33
2018-11-21T03:32:16.886Z,20.33
2018-11-21T03:33:16.870Z,20.37
2018-11-21T03:34:16.879Z,20.27
2018-11-21T03:35:16.870Z,20.33
2018-11-21T03:36:16.836Z,20.35
2018-11-21T03:37:16.840Z,20.31
2018-11-21T03:38:16.813Z,20.34
2018-11-21T03:39:16.812Z,20.34
2018-11-21T03:40:16.812Z,20.34
2018-11-21T03:41:16.782Z,20.34
2018-11-21T03:42:16.770Z,20.31
2018-11-21T03:43:16.788Z,20.31
2018-11-21T03:44:16.749Z,20.31
2018-11-21T03:45:16.760Z,20.35
2018-11-21T03:46:16.728Z,20.35
2018-11-21T03:47:16.720Z,20.37
2018-11-21T03:48:16.710Z,20.38
2018-11-21T03:49:16.692Z,20.33
2018-11-21T03:50:16.729Z,20.33
2018-11-21T03:51:16.672Z,20.34
2018-11-21T03:52:16.666Z,20.33
2018-11-21T03:53:16.658Z,20.38
2018-11-21T03:54:16.637Z,20.33
2018-11-21T03:55:16.632Z,20.31
2018-11-21T03:56:16.661Z,20.34
2018-11-21T03:57:16.608Z,20.33
2018-11-21T03:58:16.596Z,20.35
2018-11-21T03:59:16.582Z,20.38
2018-11-21T04:00:16.572Z,20.37
2018-11-21T04:01:16.575Z,20.34
2018-11-21T04:02:16.571Z,20.27
2018-11-21T04:03:16.542Z,20.34
2018-11-21T04:04:16.534Z,20.38
2018-11-21T04:05:16.517Z,20.37
2018-11-21T04:06:16.526Z,20.38
2018-11-21T04:07:16.502Z,20.34
2018-11-21T04:08:16.504Z,20.37
2018-11-21T04:09:16.476Z,20.37
2018-11-21T04:10:16.461Z,20.37
2018-11-21T04:11:16.472Z,20.34
2018-11-21T04:12:16.438Z,20.41
2018-11-21T04:13:16.435Z,20.35
2018-11-21T04:14:16.445Z,20.41
2018-11-21T04:15:16.408Z,20.31
2018-11-21T04:16:16.412Z,20.35
2018-11-21T04:17:16.384Z,20.37
2018-11-21T04:18:16.376Z,20.33
2018-11-21T04:19:16.363Z,20.37
2018-11-21T04:20:16.378Z,20.34
2018-11-21T04:21:16.361Z,20.33
2018-11-21T04:22:16.337Z,20.33
2018-11-21T04:23:16.326Z,20.34
2018-11-21T04:24:16.314Z,20.31
2018-11-21T04:25:16.299Z,20.31
2018-11-21T04:26:16.320Z,20.34
2018-11-21T04:27:16.275Z,20.31
2018-11-21T04:28:16.262Z,20.30
2018-11-21T04:29:16.253Z,20.30
2018-11-21T04:30:16.242Z,20.27
2018-11-21T04:31:16.247Z,20.31
2018-11-21T04:32:16.265Z,20.35
2018-11-21T04:33:16.210Z,20.25
2018-11-21T04:34:16.199Z,20.27
2018-11-21T04:35:16.185Z,20.23
2018-11-21T04:36:16.198Z,20.22
2018-11-21T04:37:16.165Z,20.27
2018-11-21T04:38:16.184Z,20.31
2018-11-21T04:39:16.149Z,20.26
2018-11-21T04:40:16.131Z,20.31
2018-11-21T04:41:16.142Z,20.25
2018-11-21T04:42:16.112Z,20.30
2018-11-21T04:43:16.099Z,20.25
2018-11-21T04:44:16.120Z,20.25
2018-11-21T04:45:16.085Z,20.23
2018-11-21T04:46:16.080Z,20.25
2018-11-21T04:47:16.060Z,20.22
2018-11-21T04:48:16.046Z,20.16
2018-11-21T04:49:16.039Z,20.22
2018-11-21T04:50:16.049Z,20.22
2018-11-21T04:51:16.046Z,20.26
2018-11-21T04:52:15.999Z,20.26
2018-11-21T04:53:15.988Z,20.22
2018-11-21T04:54:15.978Z,20.31
2018-11-21T04:55:15.968Z,20.22
2018-11-21T04:56:15.986Z,20.22
2018-11-21T04:57:15.962Z,20.27
2018-11-21T04:58:15.933Z,20.27
2018-11-21T04:59:15.921Z,20.13
2018-11-21T05:00:15.919Z,20.27
2018-11-21T05:01:15.900Z,20.27
2018-11-21T05:02:15.955Z,20.25
2018-11-21T05:03:15.878Z,20.25
2018-11-21T05:04:15.869Z,20.19
2018-11-21T05:05:15.863Z,20.25
2018-11-21T05:06:15.854Z,20.25
2018-11-21T05:07:15.849Z,20.22
2018-11-21T05:08:15.865Z,20.25
2018-11-21T05:09:15.811Z,20.23
2018-11-21T05:10:15.803Z,20.33
2018-11-21T05:11:15.794Z,20.20
2018-11-21T05:12:15.793Z,20.19
2018-11-21T05:13:15.768Z,20.30
2018-11-21T05:14:15.775Z,20.23
2018-11-21T05:15:15.764Z,20.27
2018-11-21T05:16:15.736Z,20.26
2018-11-21T05:17:15.754Z,20.37
2018-11-21T05:18:15.715Z,20.33
2018-11-21T05:19:15.711Z,20.31
2018-11-21T05:20:15.692Z,20.35
2018-11-21T05:21:15.680Z,20.31
2018-11-21T05:22:15.685Z,20.41
2018-11-21T05:23:15.663Z,20.41
2018-11-21T05:24:15.648Z,20.37
2018-11-21T05:25:15.640Z,20.44
2018-11-21T05:26:15.638Z,20.41
2018-11-21T05:27:15.631Z,20.41
2018-11-21T05:28:15.607Z,20.46
2018-11-21T05:29:15.600Z,20.44
2018-11-21T05:30:15.604Z,20.42
2018-11-21T05:31:15.572Z,20.46
2018-11-21T05:32:15.578Z,20.41
2018-11-21T05:33:15.556Z,20.48
2018-11-21T05:34:15.541Z,20.46
2018-11-21T05:35:15.533Z,20.48
2018-11-21T05:36:15.517Z,20.44
2018-11-21T05:37:15.527Z,20.44
2018-11-21T05:38:15.495Z,20.44
2018-11-21T05:39:15.482Z,20.42
2018-11-21T05:40:15.477Z,20.41
2018-11-21T05:41:15.470Z,20.44
2018-11-21T05:42:15.467Z,20.41
2018-11-21T05:43:15.445Z,20.46
2018-11-21T05:44:15.432Z,20.41
2018-11-21T05:45:15.418Z,20.42
2018-11-21T05:46:15.408Z,20.42
2018-11-21T05:47:15.408Z,20.56
2018-11-21T05:48:15.393Z,20.48
2018-11-21T05:49:15.386Z,20.42
2018-11-21T05:50:15.365Z,20.51
2018-11-21T05:51:15.352Z,20.48
2018-11-21T05:52:15.355Z,20.46
2018-11-21T05:53:15.334Z,20.41
2018-11-21T05:54:15.323Z,20.46
2018-11-21T05:55:15.304Z,20.35
2018-11-21T05:56:15.301Z,20.40
2018-11-21T05:57:15.300Z,20.38
2018-11-21T05:58:15.272Z,20.40
2018-11-21T05:59:15.262Z,20.40
2018-11-21T06:00:15.251Z,20.38
2018-11-21T06:01:15.283Z,20.38
2018-11-21T06:02:15.254Z,20.35
2018-11-21T06:03:15.219Z,20.34
2018-11-21T06:04:15.213Z,20.33
2018-11-21T06:05:15.202Z,20.26
2018-11-21T06:06:15.188Z,20.30
2018-11-21T06:07:15.193Z,20.25
2018-11-21T06:08:15.174Z,20.30
2018-11-21T06:09:15.152Z,20.25
2018-11-21T06:10:15.149Z,20.27
2018-11-21T06:11:15.136Z,20.25
2018-11-21T06:12:15.145Z,20.30
2018-11-21T06:13:15.142Z,20.30
2018-11-21T06:14:15.104Z,20.27
2018-11-21T06:15:15.085Z,20.26
2018-11-21T06:16:15.080Z,20.27
2018-11-21T06:17:15.090Z,20.26
2018-11-21T06:18:15.057Z,20.30
2018-11-21T06:19:15.045Z,20.38
2018-11-21T06:20:15.031Z,20.37
2018-11-21T06:21:15.029Z,20.41
2018-11-21T06:22:15.030Z,20.34
2018-11-21T06:23:15.027Z,20.44
2018-11-21T06:24:15.023Z,20.41
2018-11-21T06:25:14.977Z,20.46
2018-11-21T06:26:14.972Z,20.41
2018-11-21T06:27:14.989Z,20.50
2018-11-21T06:28:14.958Z,20.44
2018-11-21T06:29:14.933Z,20.46
2018-11-21T06:30:14.925Z,20.46
2018-11-21T06:31:14.910Z,20.51
2018-11-21T06:32:14.907Z,20.50
2018-11-21T06:33:14.908Z,20.50
2018-11-21T06:34:14.880Z,20.44
2018-11-21T06:35:14.865Z,20.50
2018-11-21T06:36:14.859Z,20.48
2018-11-21T06:37:14.849Z,20.56
2018-11-21T06:38:14.853Z,20.42
2018-11-21T06:39:14.831Z,20.46
2018-11-21T06:40:14.817Z,20.51
2018-11-21T06:41:14.810Z,20.46
2018-11-21T06:42:14.791Z,20.53
2018-11-21T06:43:14.794Z,20.46
2018-11-21T06:44:14.768Z,20.54
2018-11-21T06:45:14.763Z,20.46
2018-11-21T06:46:14.751Z,20.58
2018-11-21T06:47:14.748Z,20.51
2018-11-21T06:48:14.743Z,20.57
2018-11-21T06:49:14.802Z,20.46
2018-11-21T06:50:14.712Z,20.46
2018-11-21T06:51:14.697Z,20.41
2018-11-21T06:52:21.921Z,20.42
2018-11-21T06:53:14.696Z,20.42
2018-11-21T06:54:14.656Z,20.46
2018-11-21T06:55:14.646Z,20.46
2018-11-21T06:56:14.639Z,20.50
2018-11-21T06:57:14.625Z,20.50
2018-11-21T06:58:14.628Z,20.61
2018-11-21T06:59:14.605Z,20.63
2018-11-21T07:00:14.595Z,20.61
2018-11-21T07:01:14.598Z,20.58
2018-11-21T07:02:14.570Z,20.66
2018-11-21T07:03:14.580Z,20.61
2018-11-21T07:04:14.568Z,20.63
2018-11-21T07:05:14.538Z,20.68
2018-11-21T07:06:14.536Z,20.71
2018-11-21T07:07:14.515Z,20.72
2018-11-21T07:08:14.526Z,20.85
2018-11-21T07:09:14.497Z,20.83
2018-11-21T07:10:14.488Z,20.76
2018-11-21T07:11:14.469Z,20.85
2018-11-21T07:12:14.467Z,20.85
2018-11-21T07:13:14.464Z,20.85
2018-11-21T07:14:14.444Z,20.90
2018-11-21T07:15:14.452Z,20.90
2018-11-21T07:16:14.442Z,20.94
2018-11-21T07:17:14.407Z,20.93
2018-11-21T07:18:15.546Z,20.90
2018-11-21T07:19:14.388Z,20.88
2018-11-21T07:20:14.386Z,20.88
2018-11-21T07:21:14.374Z,20.83
2018-11-21T07:22:14.351Z,20.87
2018-11-21T07:23:14.356Z,20.82
2018-11-21T07:24:14.334Z,20.82
2018-11-21T07:25:14.324Z,20.87
2018-11-21T07:26:14.307Z,20.82
2018-11-21T07:27:14.302Z,20.79
2018-11-21T07:28:14.298Z,20.76
2018-11-21T07:29:14.293Z,20.81
2018-11-21T07:30:14.270Z,20.81
2018-11-21T07:31:14.258Z,20.81
2018-11-21T07:32:14.247Z,20.79
2018-11-21T07:33:14.243Z,20.83
2018-11-21T07:34:14.231Z,20.87
2018-11-21T07:35:17.810Z,20.78
2018-11-21T07:36:14.196Z,20.79
2018-11-21T07:37:14.186Z,20.83
2018-11-21T07:38:14.208Z,20.76
2018-11-21T07:39:14.163Z,20.76
2018-11-21T07:40:14.152Z,20.76
2018-11-21T07:41:14.140Z,20.83
2018-11-21T07:42:14.129Z,20.78
2018-11-21T07:43:14.120Z,20.82
2018-11-21T07:44:14.124Z,20.76
2018-11-21T07:45:14.098Z,20.85
2018-11-21T07:46:14.090Z,20.76
2018-11-21T07:47:14.080Z,20.75
2018-11-21T07:48:20.199Z,20.81
2018-11-21T07:49:15.067Z,20.76
2018-11-21T07:50:14.046Z,20.76
2018-11-21T07:51:14.044Z,20.76
2018-11-21T07:52:14.027Z,20.79
2018-11-21T07:53:14.016Z,20.83
2018-11-21T07:54:14.021Z,20.76
2018-11-21T07:55:13.993Z,20.76
2018-11-21T07:56:13.979Z,20.71
2018-11-21T07:57:14.480Z,20.79
2018-11-21T07:58:13.962Z,20.72
2018-11-21T07:59:13.959Z,20.69
2018-11-21T08:00:13.940Z,20.68
2018-11-21T08:01:14.135Z,20.73
2018-11-21T08:02:13.910Z,20.64
2018-11-21T08:03:14.819Z,20.71
2018-11-21T08:04:13.909Z,20.64
2018-11-21T08:05:13.883Z,20.60
2018-11-21T08:06:13.868Z,20.58
2018-11-21T08:07:13.861Z,20.69
2018-11-21T08:08:13.846Z,20.66
2018-11-21T08:09:13.848Z,20.69
2018-11-21T08:10:13.824Z,20.63
2018-11-21T08:11:13.834Z,20.64
2018-11-21T08:12:13.812Z,20.71
2018-11-21T08:13:13.812Z,20.66
2018-11-21T08:14:13.801Z,20.66
2018-11-21T08:15:19.230Z,20.64
2018-11-21T08:16:13.863Z,20.61
2018-11-21T08:17:13.774Z,20.63
2018-11-21T08:18:13.779Z,20.69
2018-11-21T08:19:13.781Z,20.76
2018-11-21T08:20:13.712Z,20.66
2018-11-21T08:21:13.759Z,20.76
2018-11-21T08:22:13.694Z,20.75
2018-11-21T08:23:13.717Z,20.72
2018-11-21T08:24:15.030Z,20.76
2018-11-21T08:25:13.677Z,20.79
2018-11-21T08:26:13.648Z,20.78
2018-11-21T08:27:13.645Z,20.76
2018-11-21T08:28:13.633Z,20.78
2018-11-21T08:29:13.617Z,20.76
2018-11-21T08:30:13.619Z,20.76
2018-11-21T08:31:14.516Z,20.76
2018-11-21T08:32:13.608Z,20.76
2018-11-21T08:33:13.575Z,20.79
2018-11-21T08:34:13.563Z,20.81
2018-11-21T08:35:13.578Z,20.82
2018-11-21T08:36:13.539Z,20.78
2018-11-21T08:37:13.526Z,20.82
2018-11-21T08:38:13.538Z,20.79
2018-11-21T08:39:13.510Z,20.81
2018-11-21T08:40:13.522Z,20.82
2018-11-21T08:41:13.486Z,20.79
2018-11-21T08:42:13.477Z,20.76
2018-11-21T08:43:13.461Z,20.83
2018-11-21T08:44:13.450Z,20.81
2018-11-21T08:45:13.459Z,20.76
2018-11-21T08:46:13.501Z,20.81
2018-11-21T08:47:13.425Z,20.83
2018-11-21T08:48:13.405Z,20.81
2018-11-21T08:49:13.400Z,20.81
2018-11-21T08:50:13.399Z,20.79
2018-11-21T08:51:13.381Z,20.83
2018-11-21T08:52:13.362Z,20.85
2018-11-21T08:53:13.353Z,20.82
2018-11-21T08:54:13.345Z,20.82
2018-11-21T08:55:13.430Z,20.85
2018-11-21T08:56:13.353Z,20.85
2018-11-21T08:57:13.306Z,20.82
2018-11-21T08:58:13.295Z,20.91
2018-11-21T08:59:13.285Z,20.87
2018-11-21T09:00:13.292Z,20.90
2018-11-21T09:01:13.299Z,20.88
2018-11-21T09:02:13.253Z,20.87
2018-11-21T09:03:13.258Z,20.91
2018-11-21T09:04:13.238Z,20.88
2018-11-21T09:05:13.255Z,20.90
2018-11-21T09:06:13.210Z,20.87
2018-11-21T09:07:13.232Z,20.87
2018-11-21T09:08:13.193Z,20.83
2018-11-21T09:09:13.176Z,20.94
2018-11-21T09:10:13.186Z,20.88
2018-11-21T09:11:13.166Z,20.88
2018-11-21T09:12:15.397Z,20.91
2018-11-21T09:13:13.132Z,20.90
2018-11-21T09:14:13.121Z,20.93
2018-11-21T09:15:13.136Z,20.94
2018-11-21T09:16:13.100Z,20.87
2018-11-21T09:17:13.092Z,20.83
2018-11-21T09:18:13.103Z,20.82
2018-11-21T09:19:13.071Z,20.90
2018-11-21T09:20:13.079Z,20.87
2018-11-21T09:21:13.046Z,20.85
2018-11-21T09:22:13.031Z,20.88
2018-11-21T09:23:13.021Z,20.83
2018-11-21T09:24:13.024Z,20.76
2018-11-21T09:25:13.060Z,20.75
2018-11-21T09:26:13.012Z,20.76
2018-11-21T09:27:12.984Z,20.82
2018-11-21T09:28:12.995Z,20.85
2018-11-21T09:29:12.967Z,20.82
2018-11-21T09:30:12.950Z,20.81
2018-11-21T09:31:12.952Z,20.82
2018-11-21T09:32:12.935Z,20.78
2018-11-21T09:33:12.918Z,20.78
2018-11-21T09:34:12.927Z,20.83
2018-11-21T09:35:12.894Z,20.88
2018-11-21T09:36:12.916Z,20.83
2018-11-21T09:37:12.867Z,20.81
2018-11-21T09:38:12.860Z,20.78
2018-11-21T09:39:12.844Z,20.85
2018-11-21T09:40:12.840Z,20.87
2018-11-21T09:41:12.854Z,20.87
2018-11-21T09:42:12.815Z,20.91
2018-11-21T09:43:15.741Z,20.87
2018-11-21T09:44:12.799Z,20.87
2018-11-21T09:45:13.656Z,20.88
2018-11-21T09:46:16.991Z,20.90
2018-11-21T09:47:13.208Z,20.87
2018-11-21T09:48:13.128Z,20.90
2018-11-21T09:49:12.735Z,20.88
2018-11-21T09:50:12.724Z,20.97
2018-11-21T09:51:12.729Z,20.91
2018-11-21T09:52:12.702Z,20.96
2018-11-21T09:53:12.699Z,20.88
2018-11-21T09:54:12.682Z,20.97
2018-11-21T09:55:12.669Z,21.05
2018-11-21T09:56:12.677Z,20.98
2018-11-21T09:57:12.667Z,20.96
2018-11-21T09:58:12.642Z,21.00
2018-11-21T09:59:12.625Z,20.88
2018-11-21T10:00:12.614Z,21.00
2018-11-21T10:01:12.623Z,21.01
2018-11-21T10:02:12.592Z,21.00
2018-11-21T10:03:12.583Z,20.88
2018-11-21T10:04:12.571Z,20.91
2018-11-21T10:05:12.560Z,20.97
2018-11-21T10:06:12.563Z,20.83
2018-11-21T10:07:12.539Z,20.87
2018-11-21T10:08:12.528Z,20.96
2018-11-21T10:09:12.520Z,20.91
2018-11-21T10:10:12.510Z,20.85
2018-11-21T10:11:12.651Z,20.87
2018-11-21T10:12:12.488Z,20.98
2018-11-21T10:13:12.478Z,20.85
2018-11-21T10:14:12.549Z,20.85
2018-11-21T10:15:12.469Z,20.97
2018-11-21T10:16:12.439Z,20.90
2018-11-21T10:17:12.463Z,20.83
2018-11-21T10:18:12.417Z,20.96
2018-11-21T10:19:12.407Z,20.96
2018-11-21T10:20:12.413Z,20.90
2018-11-21T10:21:12.391Z,20.93
2018-11-21T10:22:12.655Z,20.93
2018-11-21T10:23:12.365Z,20.87
2018-11-21T10:24:12.357Z,20.97
2018-11-21T10:25:12.339Z,20.93
2018-11-21T10:26:12.461Z,20.94
2018-11-21T10:27:12.339Z,20.96
2018-11-21T10:28:12.308Z,21.01
2018-11-21T10:29:12.298Z,20.98
2018-11-21T10:30:12.381Z,21.00
2018-11-21T10:31:12.276Z,21.00
2018-11-21T10:32:12.286Z,21.01
2018-11-21T10:33:12.252Z,20.94
2018-11-21T10:34:12.243Z,21.00
2018-11-21T10:35:12.237Z,21.08
2018-11-21T10:36:12.219Z,21.00
2018-11-21T10:37:12.224Z,20.96
2018-11-21T10:38:12.223Z,21.05
2018-11-21T10:39:12.185Z,21.01
2018-11-21T10:40:12.175Z,21.05
2018-11-21T10:41:12.164Z,21.05
2018-11-21T10:42:12.174Z,21.01
2018-11-21T10:43:12.165Z,21.01
2018-11-21T10:44:12.135Z,21.08
2018-11-21T10:45:12.121Z,20.98
2018-11-21T10:46:12.120Z,21.03
2018-11-21T10:47:12.116Z,21.08
2018-11-21T10:48:12.089Z,20.98
2018-11-21T10:49:12.119Z,21.06
2018-11-21T10:50:12.072Z,20.98
2018-11-21T10:51:12.055Z,21.05
2018-11-21T10:52:12.061Z,21.03
2018-11-21T10:53:12.032Z,21.01
2018-11-21T10:54:12.021Z,21.00
2018-11-21T10:55:12.011Z,21.03
2018-11-21T10:56:12.007Z,20.98
2018-11-21T10:57:12.020Z,21.08
2018-11-21T10:58:11.996Z,21.03
2018-11-21T10:59:11.995Z,20.98
2018-11-21T11:00:11.979Z,21.09
2018-11-21T11:01:11.947Z,20.94
2018-11-21T11:02:11.965Z,21.00
2018-11-21T11:03:11.921Z,21.01
2018-11-21T11:04:11.913Z,20.97
2018-11-21T11:05:11.925Z,21.00
2018-11-21T11:06:11.898Z,20.98
2018-11-21T11:07:11.884Z,20.88
2018-11-21T11:08:11.889Z,20.93
2018-11-21T11:09:11.863Z,20.96
2018-11-21T11:10:11.851Z,20.97
2018-11-21T11:11:11.837Z,20.91
2018-11-21T11:12:11.824Z,20.85
2018-11-21T11:13:11.830Z,20.82
2018-11-21T11:14:11.802Z,20.83
2018-11-21T11:15:11.793Z,20.78
2018-11-21T11:16:11.808Z,20.82
2018-11-21T11:17:11.780Z,20.78
2018-11-21T11:18:11.776Z,20.88
2018-11-21T11:19:11.756Z,20.81
2018-11-21T11:20:11.737Z,20.82
2018-11-21T11:21:11.804Z,20.87
2018-11-21T11:22:11.727Z,20.87
2018-11-21T11:23:11.721Z,20.83
2018-11-21T11:24:11.696Z,20.91
2018-11-21T11:25:11.684Z,20.98
2018-11-21T11:26:11.767Z,20.97
2018-11-21T11:27:11.701Z,20.90
2018-11-21T11:28:14.636Z,20.90
2018-11-21T11:29:11.656Z,21.05
2018-11-21T11:30:11.625Z,21.08
2018-11-21T11:31:11.617Z,21.09
2018-11-21T11:32:11.702Z,21.01
2018-11-21T11:33:11.602Z,21.01
2018-11-21T11:34:11.606Z,21.09
2018-11-21T11:35:11.571Z,21.12
2018-11-21T11:36:11.560Z,21.13
2018-11-21T11:37:11.551Z,21.08
2018-11-21T11:38:11.551Z,21.11
2018-11-21T11:39:11.543Z,21.13
2018-11-21T11:40:11.517Z,21.11
2018-11-21T11:41:11.510Z,21.11
2018-11-21T11:42:11.503Z,21.09
2018-11-21T11:43:11.484Z,20.98
2018-11-21T11:44:11.490Z,21.11
2018-11-21T11:45:14.402Z,21.12
2018-11-21T11:46:11.463Z,20.98
2018-11-21T11:47:11.453Z,20.98
2018-11-21T11:48:11.428Z,20.97
2018-11-21T11:49:11.453Z,21.06
2018-11-21T11:50:11.445Z,20.98
2018-11-21T11:51:11.405Z,21.03
2018-11-21T11:52:11.426Z,21.05
2018-11-21T11:53:11.373Z,21.05
2018-11-21T11:54:11.446Z,21.01
2018-11-21T11:55:11.381Z,21.00
2018-11-21T11:56:11.351Z,20.97
2018-11-21T11:57:11.387Z,21.01
2018-11-21T11:58:11.328Z,21.06
2018-11-21T11:59:11.329Z,21.05
2018-11-21T12:00:11.308Z,21.03
2018-11-21T12:01:11.292Z,21.05
2018-11-21T12:02:13.424Z,20.96
2018-11-21T12:03:11.281Z,20.88
2018-11-21T12:04:11.265Z,20.87
2018-11-21T12:05:11.285Z,20.91
2018-11-21T12:06:11.230Z,20.97
2018-11-21T12:07:11.221Z,20.97
2018-11-21T12:08:11.232Z,20.88
2018-11-21T12:09:11.217Z,20.96
2018-11-21T12:10:11.190Z,21.00
2018-11-21T12:11:11.185Z,20.96
2018-11-21T12:12:11.166Z,20.98
2018-11-21T12:13:11.159Z,20.97
2018-11-21T12:14:11.180Z,20.93
2018-11-21T12:15:11.159Z,21.01
2018-11-21T12:16:11.128Z,20.91
2018-11-21T12:17:11.118Z,20.90
2018-11-21T12:18:11.105Z,20.93
2018-11-21T12:19:11.088Z,20.97
2018-11-21T12:20:11.094Z,20.87
2018-11-21T12:21:11.072Z,20.94
2018-11-21T12:22:11.058Z,21.00
2018-11-21T12:23:11.060Z,20.98
2018-11-21T12:24:11.034Z,20.94
2018-11-21T12:25:11.037Z,20.93
2018-11-21T12:26:11.017Z,20.93
2018-11-21T12:27:11.008Z,20.90
2018-11-21T12:28:10.994Z,21.03
2018-11-21T12:29:11.557Z,20.88
2018-11-21T12:30:10.989Z,20.93
2018-11-21T12:31:10.962Z,20.96
2018-11-21T12:32:10.962Z,20.97
2018-11-21T12:33:10.942Z,20.88
2018-11-21T12:34:11.047Z,20.90
2018-11-21T12:35:11.903Z,20.85
2018-11-21T12:36:10.983Z,20.97
2018-11-21T12:37:10.950Z,20.83
2018-11-21T12:38:10.879Z,20.94
2018-11-21T12:39:10.875Z,20.94
2018-11-21T12:40:10.877Z,20.96
2018-11-21T12:41:10.875Z,20.83
2018-11-21T12:42:10.842Z,20.97
2018-11-21T12:43:13.416Z,20.85
2018-11-21T12:44:10.824Z,20.85
2018-11-21T12:45:10.832Z,20.88
2018-11-21T12:46:10.795Z,20.83
2018-11-21T12:47:10.790Z,20.82
2018-11-21T12:48:10.774Z,20.81
2018-11-21T12:49:10.781Z,20.81
2018-11-21T12:50:10.767Z,20.78
2018-11-21T12:51:10.773Z,20.78
2018-11-21T12:52:10.756Z,20.75